Time;durP1;ratioP1;P1;durP2;ratioP2;P2;SDS_P1;SDS_P2;PMS_P1;PMS_P2;Temp;Humidity;BMP_temperature;BMP_pressure;BME280_temperature;BME280_humidity;BME280_pressure;Samples;Min_cycle;Max_cycle;Signal;HPM_P1;HPM_P2
2021/10/18 00:02:16;;;;;;;4.20;3.80;;;9.00;99.90;;;;;;5018404;28;20210;-44
2021/10/18 00:04:42;;;;;;;5.67;3.80;;;9.00;99.90;;;;;;5025745;28;20190;-41
2021/10/18 00:07:08;;;;;;;5.30;4.17;;;8.90;99.90;;;;;;5026113;28;20186;-41
2021/10/18 00:09:33;;;;;;;4.03;3.73;;;8.90;99.90;;;;;;5025920;28;20197;-40
2021/10/18 00:11:59;;;;;;;4.63;4.10;;;8.70;99.90;;;;;;5026289;28;20241;-41
2021/10/18 00:14:25;;;;;;;4.43;3.83;;;8.80;99.90;;;;;;5024645;28;20198;-41
2021/10/18 00:16:50;;;;;;;4.97;4.10;;;9.00;99.90;;;;;;5016366;28;20178;-41
2021/10/18 00:19:16;;;;;;;4.70;4.30;;;9.10;99.90;;;;;;5025934;28;20421;-41
2021/10/18 00:21:42;;;;;;;4.07;3.77;;;9.40;99.90;;;;;;5043189;28;20190;-42
2021/10/18 00:24:08;;;;;;;5.03;3.70;;;9.10;99.90;;;;;;5039501;28;20429;-40
2021/10/18 00:26:34;;;;;;;4.13;3.73;;;9.20;99.90;;;;;;5042708;28;20198;-41
2021/10/18 00:29:00;;;;;;;6.00;4.33;;;9.20;99.90;;;;;;5046271;28;20190;-40
2021/10/18 00:31:26;;;;;;;4.77;4.07;;;9.30;99.90;;;;;;5023695;28;20433;-40
2021/10/18 00:33:51;;;;;;;5.50;4.17;;;9.10;99.90;;;;;;5025104;28;20201;-40
2021/10/18 00:36:17;;;;;;;5.03;4.03;;;9.40;99.90;;;;;;5025485;28;20186;-41
2021/10/18 00:38:43;;;;;;;6.83;5.53;;;9.10;99.90;;;;;;5024519;28;20194;-42
2021/10/18 00:41:09;;;;;;;4.93;4.00;;;9.10;99.90;;;;;;5025681;28;20581;-40
2021/10/18 00:43:35;;;;;;;4.83;4.43;;;9.10;99.90;;;;;;5025207;28;20487;-40
2021/10/18 00:46:01;;;;;;;4.63;4.17;;;9.20;99.90;;;;;;5020335;28;20190;-41
2021/10/18 00:48:27;;;;;;;5.13;4.57;;;9.00;99.90;;;;;;5024417;28;20764;-43
2021/10/18 00:50:56;;;;;;;4.27;3.97;;;9.00;99.90;;;;;;5025347;28;20190;-41
2021/10/18 00:53:25;;;;;;;4.17;3.80;;;9.20;99.90;;;;;;5024861;28;20328;-41
2021/10/18 00:55:51;;;;;;;4.20;3.90;;;8.90;99.90;;;;;;5025188;28;20983;-40
2021/10/18 00:58:17;;;;;;;5.00;3.70;;;8.70;99.90;;;;;;5024641;28;20425;-42
2021/10/18 01:00:43;;;;;;;5.97;4.87;;;8.50;99.90;;;;;;5021572;28;20434;-43
2021/10/18 01:03:09;;;;;;;5.27;4.60;;;8.60;99.90;;;;;;5020762;28;20919;-41
2021/10/18 01:05:36;;;;;;;4.23;3.83;;;8.60;99.90;;;;;;5025012;28;20417;-41
2021/10/18 01:08:02;;;;;;;5.57;4.27;;;8.40;99.90;;;;;;5023916;28;20260;-40
2021/10/18 01:10:28;;;;;;;5.67;4.37;;;8.40;99.90;;;;;;5025366;28;20437;-40
2021/10/18 01:12:54;;;;;;;6.07;4.73;;;8.60;99.90;;;;;;5024818;28;20527;-41
2021/10/18 01:15:20;;;;;;;4.77;4.37;;;8.60;99.90;;;;;;5022166;28;20225;-41
2021/10/18 01:17:45;;;;;;;5.90;5.00;;;8.60;99.90;;;;;;5016133;28;20277;-41
2021/10/18 01:20:14;;;;;;;5.73;5.13;;;8.90;99.90;;;;;;5024080;28;20406;-40
2021/10/18 01:22:40;;;;;;;5.20;4.30;;;9.00;99.90;;;;;;5023846;28;20321;-40
2021/10/18 01:25:06;;;;;;;5.60;4.67;;;9.10;99.90;;;;;;5024938;28;20454;-40
2021/10/18 01:27:31;;;;;;;5.40;4.90;;;9.10;99.90;;;;;;5025185;28;20524;-41
2021/10/18 01:29:57;;;;;;;5.03;4.60;;;9.20;99.90;;;;;;5025421;28;20516;-40
2021/10/18 01:32:23;;;;;;;6.03;4.97;;;9.20;99.90;;;;;;5012998;28;20210;-40
2021/10/18 01:34:48;;;;;;;5.50;5.00;;;9.20;99.90;;;;;;5024214;28;20597;-40
2021/10/18 01:37:14;;;;;;;7.57;4.90;;;9.20;99.90;;;;;;5025327;28;20713;-40
2021/10/18 01:39:40;;;;;;;5.60;4.77;;;9.20;99.90;;;;;;5025498;28;20332;-40
2021/10/18 01:42:06;;;;;;;5.47;4.90;;;9.30;99.90;;;;;;5025361;28;20523;-41
2021/10/18 01:44:32;;;;;;;4.87;4.37;;;9.20;99.90;;;;;;5024280;28;20943;-41
2021/10/18 01:46:57;;;;;;;6.00;4.93;;;9.10;99.90;;;;;;5015503;28;20840;-41
2021/10/18 01:49:23;;;;;;;8.80;5.47;;;9.30;99.90;;;;;;5022995;28;20187;-40
2021/10/18 01:51:49;;;;;;;6.53;4.60;;;9.20;99.90;;;;;;5025209;28;20423;-40
2021/10/18 01:54:15;;;;;;;5.20;4.70;;;9.20;99.90;;;;;;5024585;28;20615;-41
2021/10/18 01:56:41;;;;;;;5.10;4.67;;;9.10;99.90;;;;;;5025019;28;20264;-40
2021/10/18 01:59:07;;;;;;;5.67;4.60;;;9.00;99.90;;;;;;5023954;28;20421;-40
2021/10/18 02:01:33;;;;;;;6.10;4.67;;;8.90;99.90;;;;;;5019756;28;20880;-41
2021/10/18 02:03:59;;;;;;;5.27;4.77;;;9.20;99.90;;;;;;5025076;28;20261;-40
2021/10/18 02:06:24;;;;;;;5.30;4.60;;;9.20;99.90;;;;;;5028339;28;20681;-41
2021/10/18 02:08:50;;;;;;;5.00;4.60;;;9.20;99.90;;;;;;5028134;28;20581;-40
2021/10/18 02:11:16;;;;;;;5.90;5.07;;;9.20;99.90;;;;;;5027092;28;20186;-45
2021/10/18 02:13:41;;;;;;;7.17;5.00;;;9.20;99.90;;;;;;5026493;28;20633;-41
2021/10/18 02:16:07;;;;;;;5.70;4.93;;;9.40;99.90;;;;;;5025296;28;20179;-42
2021/10/18 02:18:32;;;;;;;6.87;5.10;;;9.10;99.90;;;;;;5023763;28;20571;-42
2021/10/18 02:21:01;;;;;;;5.70;4.90;;;9.40;99.90;;;;;;5030011;28;20642;-40
2021/10/18 02:23:29;;;;;;;4.23;3.83;;;9.10;99.90;;;;;;5045398;28;20200;-42
2021/10/18 02:25:54;;;;;;;5.20;4.80;;;9.10;99.90;;;;;;5044607;28;20458;-41
2021/10/18 02:28:21;;;;;;;6.60;4.50;;;9.10;99.90;;;;;;5048108;28;21316;-40
2021/10/18 02:30:46;;;;;;;6.13;4.70;;;8.90;99.90;;;;;;5047994;28;20194;-41
2021/10/18 02:33:12;;;;;;;7.03;4.50;;;9.00;99.90;;;;;;5017081;28;20469;-45
2021/10/18 02:35:38;;;;;;;5.60;5.00;;;9.20;99.90;;;;;;5019803;28;20471;-40
2021/10/18 02:38:04;;;;;;;4.73;4.33;;;9.00;99.90;;;;;;5028038;28;20421;-41
2021/10/18 02:40:30;;;;;;;4.87;4.37;;;8.90;99.90;;;;;;5027691;28;20195;-40
2021/10/18 02:42:55;;;;;;;5.17;4.53;;;8.80;99.90;;;;;;5026960;28;20669;-44
2021/10/18 02:45:21;;;;;;;5.63;4.50;;;9.10;99.90;;;;;;5027526;28;20236;-41
2021/10/18 02:47:47;;;;;;;6.77;5.00;;;9.00;99.90;;;;;;5017027;28;20187;-41
2021/10/18 02:50:12;;;;;;;6.53;4.90;;;9.00;99.90;;;;;;5027834;28;20186;-41
2021/10/18 02:52:38;;;;;;;7.70;5.10;;;8.90;99.90;;;;;;5027079;28;20297;-41
2021/10/18 02:55:04;;;;;;;4.53;4.13;;;8.80;99.90;;;;;;5027452;28;20190;-40
2021/10/18 02:57:30;;;;;;;6.10;4.80;;;8.80;99.90;;;;;;5027326;28;20289;-40
2021/10/18 02:59:55;;;;;;;5.60;5.10;;;9.10;99.90;;;;;;5027441;28;20835;-40
2021/10/18 03:02:21;;;;;;;9.60;6.10;;;9.10;99.90;;;;;;5021204;28;20198;-40
2021/10/18 03:04:47;;;;;;;5.40;4.83;;;8.80;99.90;;;;;;5026622;28;20191;-40
2021/10/18 03:07:13;;;;;;;5.50;5.00;;;9.00;99.90;;;;;;5025803;28;20370;-40
2021/10/18 03:09:39;;;;;;;5.97;5.17;;;9.00;99.90;;;;;;5027377;28;20677;-40
2021/10/18 03:12:05;;;;;;;5.83;5.17;;;8.80;99.90;;;;;;5027355;28;20448;-40
2021/10/18 03:14:31;;;;;;;6.03;5.10;;;8.90;99.90;;;;;;5024313;28;20459;-40
2021/10/18 03:16:56;;;;;;;6.30;5.30;;;9.00;99.90;;;;;;5020298;28;20834;-41
2021/10/18 03:19:22;;;;;;;5.87;5.10;;;9.10;99.90;;;;;;5019184;28;20689;-40
2021/10/18 03:21:48;;;;;;;7.07;5.80;;;9.00;99.90;;;;;;5026841;28;20202;-41
2021/10/18 03:24:13;;;;;;;6.77;5.10;;;8.90;99.90;;;;;;5026510;28;20191;-40
2021/10/18 03:26:39;;;;;;;6.10;5.50;;;9.30;99.90;;;;;;5027053;28;20670;-39
2021/10/18 03:29:05;;;;;;;5.80;4.97;;;9.20;99.90;;;;;;5025629;28;20222;-41
2021/10/18 03:31:30;;;;;;;5.53;4.63;;;9.10;99.90;;;;;;5025196;28;20192;-40
2021/10/18 03:33:56;;;;;;;5.97;5.37;;;9.10;99.90;;;;;;5018334;28;20521;-40
2021/10/18 03:36:22;;;;;;;6.70;5.73;;;9.30;99.90;;;;;;5026687;28;20317;-40
2021/10/18 03:38:47;;;;;;;5.30;4.80;;;9.10;99.90;;;;;;5026657;28;20187;-41
2021/10/18 03:41:13;;;;;;;6.73;5.30;;;9.00;99.90;;;;;;5026579;28;20345;-40
2021/10/18 03:43:39;;;;;;;7.80;5.30;;;9.30;99.90;;;;;;5025124;28;20736;-40
2021/10/18 03:46:05;;;;;;;6.10;5.07;;;9.10;99.90;;;;;;5028104;28;20451;-40
2021/10/18 03:48:31;;;;;;;5.30;4.60;;;9.20;99.90;;;;;;5013977;28;20194;-40
2021/10/18 03:50:56;;;;;;;4.60;4.20;;;9.10;99.90;;;;;;5024810;28;20186;-40
2021/10/18 03:53:23;;;;;;;6.17;5.10;;;9.00;99.90;;;;;;5025718;28;20471;-40
2021/10/18 03:55:49;;;;;;;6.33;5.50;;;9.00;99.90;;;;;;5026105;28;20202;-40
2021/10/18 03:58:15;;;;;;;6.07;4.67;;;9.10;99.90;;;;;;5026646;28;20425;-40
2021/10/18 04:00:41;;;;;;;6.63;4.60;;;8.90;99.90;;;;;;5025857;28;20479;-40
2021/10/18 04:03:06;;;;;;;4.87;4.47;;;9.00;99.90;;;;;;5019129;28;20480;-40
2021/10/18 04:05:32;;;;;;;8.00;5.00;;;9.10;99.90;;;;;;5025361;28;20925;-40
2021/10/18 04:07:58;;;;;;;5.33;4.73;;;8.80;99.90;;;;;;5026162;28;20198;-40
2021/10/18 04:10:23;;;;;;;6.33;4.77;;;8.80;99.90;;;;;;5026314;28;20186;-40
2021/10/18 04:12:49;;;;;;;5.53;5.03;;;8.90;99.90;;;;;;5025279;28;20359;-40
2021/10/18 04:15:15;;;;;;;5.70;5.00;;;8.60;99.90;;;;;;5027531;28;20668;-40
2021/10/18 04:17:42;;;;;;;6.57;5.50;;;8.60;99.90;;;;;;5017816;28;20349;-40
2021/10/18 04:20:09;;;;;;;6.63;5.60;;;8.70;99.90;;;;;;5023202;28;20264;-40
2021/10/18 04:22:34;;;;;;;6.00;5.40;;;8.70;99.90;;;;;;5025809;28;20435;-42
2021/10/18 04:25:00;;;;;;;5.80;5.30;;;8.90;99.90;;;;;;5025342;28;20417;-40
2021/10/18 04:27:26;;;;;;;6.27;5.30;;;9.00;99.90;;;;;;5026068;28;20425;-40
2021/10/18 04:29:52;;;;;;;10.70;5.80;;;8.80;99.90;;;;;;5025563;28;20205;-40
2021/10/18 04:32:18;;;;;;;5.27;4.77;;;8.90;99.90;;;;;;5021216;28;20671;-41
2021/10/18 04:34:44;;;;;;;5.57;5.07;;;8.90;99.90;;;;;;5026615;28;20476;-42
2021/10/18 04:37:10;;;;;;;6.13;4.87;;;8.80;99.90;;;;;;5027599;28;20194;-40
2021/10/18 04:39:35;;;;;;;6.90;5.97;;;8.90;99.90;;;;;;5026956;28;20413;-44
2021/10/18 04:42:01;;;;;;;5.57;5.07;;;8.80;99.90;;;;;;5013057;28;20316;-41
2021/10/18 04:44:27;;;;;;;5.93;4.97;;;8.90;99.90;;;;;;5013910;28;20194;-42
2021/10/18 04:46:53;;;;;;;5.43;4.93;;;8.70;99.90;;;;;;5025758;28;20425;-40
2021/10/18 04:49:18;;;;;;;6.00;5.40;;;8.80;99.90;;;;;;5015928;28;20201;-40
2021/10/18 04:51:45;;;;;;;6.67;5.47;;;8.70;99.90;;;;;;5025304;28;20209;-40
2021/10/18 04:54:10;;;;;;;7.30;6.30;;;8.80;99.90;;;;;;5025144;28;20194;-40
2021/10/18 04:56:36;;;;;;;6.70;5.47;;;9.00;99.90;;;;;;5025515;28;20451;-40
2021/10/18 04:59:02;;;;;;;7.10;6.20;;;8.90;99.90;;;;;;5025482;28;20194;-40
2021/10/18 05:01:28;;;;;;;7.63;5.20;;;8.70;99.90;;;;;;5025365;28;20186;-40
2021/10/18 05:03:54;;;;;;;8.70;5.00;;;8.80;99.90;;;;;;5014084;28;20226;-40
2021/10/18 05:06:20;;;;;;;6.37;5.43;;;8.60;99.90;;;;;;5025506;28;20502;-43
2021/10/18 05:08:46;;;;;;;6.23;5.60;;;8.40;99.90;;;;;;5025818;28;20191;-44
2021/10/18 05:11:11;;;;;;;5.60;5.07;;;8.60;99.90;;;;;;5025316;28;20611;-40
2021/10/18 05:13:37;;;;;;;6.83;6.03;;;8.80;99.90;;;;;;5024405;28;20738;-40
2021/10/18 05:16:03;;;;;;;6.00;5.17;;;8.70;99.90;;;;;;5025032;28;20497;-42
2021/10/18 05:18:28;;;;;;;6.17;5.00;;;8.50;99.90;;;;;;5017833;28;20666;-41
2021/10/18 05:20:54;;;;;;;6.57;5.87;;;8.60;99.90;;;;;;5019708;28;20429;-40
2021/10/18 05:23:20;;;;;;;7.83;6.10;;;8.60;99.90;;;;;;5024577;28;20571;-40
2021/10/18 05:25:46;;;;;;;8.07;5.50;;;8.60;99.90;;;;;;5024197;28;20569;-41
2021/10/18 05:28:12;;;;;;;8.03;5.73;;;8.70;99.90;;;;;;5024491;28;20194;-42
2021/10/18 05:30:38;;;;;;;7.17;6.30;;;8.60;99.90;;;;;;5025588;28;20432;-41
2021/10/18 05:33:04;;;;;;;6.23;5.60;;;8.60;99.90;;;;;;5020312;28;20218;-42
2021/10/18 05:35:30;;;;;;;6.80;6.03;;;8.60;99.90;;;;;;5017859;28;20203;-40
2021/10/18 05:37:56;;;;;;;6.63;6.03;;;8.60;99.90;;;;;;5027705;28;20421;-46
2021/10/18 05:40:23;;;;;;;8.33;6.43;;;8.60;99.90;;;;;;5027654;28;20416;-40
2021/10/18 05:42:50;;;;;;;8.23;6.57;;;8.60;99.90;;;;;;5025783;28;20428;-41
2021/10/18 05:45:16;;;;;;;7.70;5.77;;;8.30;99.90;;;;;;5028472;28;20413;-41
2021/10/18 05:48:02;;;;;;;8.83;6.30;;;8.30;99.90;;;;;;5026335;28;20425;-41
2021/10/18 05:50:33;;;;;;;8.50;6.80;;;8.10;99.90;;;;;;5025645;28;20433;-41
2021/10/18 05:52:59;;;;;;;8.50;5.40;;;7.80;99.90;;;;;;5026242;28;20544;-41
2021/10/18 05:55:25;;;;;;;6.83;5.60;;;7.70;99.90;;;;;;5030367;28;20813;-42
2021/10/18 05:58:01;;;;;;;7.23;6.60;;;7.80;99.90;;;;;;5027946;28;20429;-42
2021/10/18 06:00:27;;;;;;;7.50;6.30;;;7.90;99.90;;;;;;5043365;28;20193;-44
2021/10/18 06:02:53;;;;;;;8.00;6.03;;;8.00;99.90;;;;;;5028918;28;21028;-41
2021/10/18 06:05:20;;;;;;;7.50;6.10;;;7.90;99.90;;;;;;5027942;28;20429;-40
2021/10/18 06:07:45;;;;;;;7.13;6.43;;;7.90;99.90;;;;;;5028380;28;20570;-41
2021/10/18 06:10:13;;;;;;;7.80;7.00;;;8.10;99.90;;;;;;5028187;28;20424;-41
2021/10/18 06:12:39;;;;;;;11.93;7.73;;;7.70;99.90;;;;;;5028395;28;20561;-40
2021/10/18 06:15:07;;;;;;;8.13;7.30;;;7.90;99.90;;;;;;5026660;28;20413;-40
2021/10/18 06:17:33;;;;;;;10.00;8.43;;;7.80;99.90;;;;;;5028465;28;20425;-40
2021/10/18 06:19:59;;;;;;;10.20;7.60;;;8.00;99.90;;;;;;5016919;28;20723;-40
2021/10/18 06:22:25;;;;;;;9.13;7.43;;;7.90;99.90;;;;;;5027748;28;20817;-40
2021/10/18 06:24:51;;;;;;;10.63;7.43;;;8.20;99.90;;;;;;5027843;28;20519;-40
2021/10/18 06:27:18;;;;;;;10.07;7.63;;;8.20;99.90;;;;;;5028388;28;20206;-40
2021/10/18 06:29:44;;;;;;;8.17;7.40;;;7.90;99.90;;;;;;5028369;28;20428;-40
2021/10/18 06:32:10;;;;;;;12.23;8.20;;;8.00;99.90;;;;;;5028102;28;20501;-40
2021/10/18 06:34:36;;;;;;;9.73;8.10;;;8.10;99.90;;;;;;5016377;28;21029;-45
2021/10/18 06:37:02;;;;;;;12.50;8.30;;;8.50;99.90;;;;;;5027791;28;20190;-40
2021/10/18 06:39:27;;;;;;;10.70;8.50;;;8.30;99.90;;;;;;5025466;28;20225;-40
2021/10/18 06:41:53;;;;;;;11.10;8.00;;;8.40;99.90;;;;;;5027514;28;20282;-40
2021/10/18 06:44:19;;;;;;;10.63;8.00;;;8.30;99.90;;;;;;5027754;28;20203;-40
2021/10/18 06:46:44;;;;;;;11.27;7.93;;;8.60;99.90;;;;;;5027692;28;20476;-40
2021/10/18 06:49:10;;;;;;;9.83;8.20;;;8.60;99.90;;;;;;5018802;28;20515;-40
2021/10/18 06:51:44;;;;;;;10.70;8.80;;;8.60;99.90;;;;;;5027110;28;20205;-40
2021/10/18 06:54:11;;;;;;;9.40;7.90;;;8.80;99.90;;;;;;5027287;28;20643;-41
2021/10/18 06:56:43;;;;;;;11.73;7.67;;;8.90;99.90;;;;;;5027439;28;20444;-40
2021/10/18 06:59:10;;;;;;;10.60;9.20;;;9.10;99.90;;;;;;5028053;28;20635;-40
2021/10/18 07:01:35;;;;;;;11.77;7.80;;;8.80;99.90;;;;;;5027580;28;20413;-40
2021/10/18 07:04:01;;;;;;;9.33;8.33;;;9.10;99.90;;;;;;5018953;28;20437;-40
2021/10/18 07:06:27;;;;;;;11.00;8.87;;;9.20;99.90;;;;;;5025759;28;20540;-43
2021/10/18 07:08:52;;;;;;;12.93;8.70;;;9.20;99.90;;;;;;5027214;28;20728;-40
2021/10/18 07:11:18;;;;;;;10.27;8.37;;;9.30;99.90;;;;;;5027470;28;20201;-41
2021/10/18 07:13:43;;;;;;;13.77;9.20;;;9.30;99.90;;;;;;5026522;28;20225;-42
2021/10/18 07:16:09;;;;;;;10.83;9.17;;;9.40;99.90;;;;;;5026347;28;20221;-40
2021/10/18 07:18:35;;;;;;;11.63;8.33;;;9.60;99.90;;;;;;5022990;28;20205;-40
2021/10/18 07:21:00;;;;;;;9.60;8.60;;;9.70;99.90;;;;;;5022266;28;20202;-41
2021/10/18 07:23:28;;;;;;;10.20;8.10;;;9.80;99.90;;;;;;5026369;28;20287;-42
2021/10/18 07:25:53;;;;;;;11.43;9.20;;;10.00;99.90;;;;;;5027498;28;20190;-41
2021/10/18 07:28:19;;;;;;;9.07;8.17;;;10.20;99.90;;;;;;5026676;28;20786;-41
2021/10/18 07:30:46;;;;;;;12.37;8.70;;;10.30;99.90;;;;;;5027057;28;20186;-41
2021/10/18 07:33:12;;;;;;;10.43;8.90;;;10.30;99.90;;;;;;5025618;28;20453;-42
2021/10/18 07:35:38;;;;;;;11.20;8.23;;;10.60;99.90;;;;;;5011288;28;20440;-42
2021/10/18 07:38:05;;;;;;;8.30;7.40;;;10.60;99.90;;;;;;5026530;28;20201;-40
2021/10/18 07:40:31;;;;;;;12.43;8.33;;;10.60;99.90;;;;;;5027055;28;20195;-40
2021/10/18 07:43:00;;;;;;;9.50;7.77;;;10.70;99.90;;;;;;5025923;28;20429;-45
2021/10/18 07:45:26;;;;;;;11.80;8.50;;;10.60;99.90;;;;;;5025442;28;21038;-44
2021/10/18 07:47:52;;;;;;;9.63;8.33;;;10.80;99.90;;;;;;5026576;28;20668;-41
2021/10/18 07:50:18;;;;;;;12.67;8.67;;;11.00;99.90;;;;;;5012725;28;20781;-40
2021/10/18 07:52:44;;;;;;;13.03;8.03;;;11.10;99.90;;;;;;5025982;28;20588;-41
2021/10/18 07:55:15;;;;;;;9.33;8.10;;;11.30;99.90;;;;;;5026662;28;20221;-41
2021/10/18 07:57:42;;;;;;;9.07;8.13;;;11.50;99.90;;;;;;5026674;28;20459;-41
2021/10/18 08:00:09;;;;;;;11.40;7.73;;;11.80;99.90;;;;;;5025595;28;20457;-41
2021/10/18 08:02:34;;;;;;;9.13;8.17;;;11.80;99.90;;;;;;5026452;28;20433;-42
2021/10/18 08:05:00;;;;;;;9.70;7.43;;;12.00;99.90;;;;;;5013409;28;20488;-41
2021/10/18 08:07:28;;;;;;;8.73;7.30;;;12.30;99.90;;;;;;5026250;28;20198;-41
2021/10/18 08:09:55;;;;;;;8.00;7.20;;;12.50;99.90;;;;;;5026123;28;20206;-41
2021/10/18 08:12:20;;;;;;;8.47;7.00;;;12.60;99.90;;;;;;5026286;28;20464;-42
2021/10/18 08:14:46;;;;;;;11.13;7.10;;;12.60;99.90;;;;;;5024126;28;20879;-40
2021/10/18 08:17:12;;;;;;;8.97;7.60;;;12.60;99.90;;;;;;5026274;28;20190;-41
2021/10/18 08:19:37;;;;;;;10.00;7.90;;;12.70;99.90;;;;;;5020380;28;20270;-44
2021/10/18 08:22:03;;;;;;;9.73;7.97;;;12.80;99.90;;;;;;5021752;28;20327;-42
2021/10/18 08:24:29;;;;;;;9.20;8.27;;;12.90;99.90;;;;;;5025335;28;20194;-41
2021/10/18 08:26:54;;;;;;;9.90;8.17;;;13.00;99.90;;;;;;5026357;28;20195;-41
2021/10/18 08:29:20;;;;;;;11.83;8.27;;;13.10;99.90;;;;;;5025849;28;20182;-41
2021/10/18 08:31:46;;;;;;;9.87;7.80;;;13.20;99.90;;;;;;5025594;28;20558;-42
2021/10/18 08:34:12;;;;;;;9.87;7.73;;;13.20;99.90;;;;;;5020630;28;20180;-41
2021/10/18 08:36:37;;;;;;;13.70;8.17;;;13.20;99.90;;;;;;5021592;28;20185;-41
2021/10/18 08:42:03;;;;;;;10.90;8.10;;;13.40;99.90;;;;;;5014080;28;20229;-41
2021/10/18 08:44:29;;;;;;;8.93;7.77;;;13.60;99.90;;;;;;5025192;28;20445;-42
2021/10/18 08:46:59;;;;;;;8.87;7.87;;;13.60;99.90;;;;;;5025860;28;20457;-42
2021/10/18 08:49:25;;;;;;;10.17;8.20;;;13.60;99.90;;;;;;5020892;28;20276;-41
2021/10/18 08:51:51;;;;;;;11.60;8.07;;;13.70;99.90;;;;;;5019009;28;20421;-41
2021/10/18 08:54:17;;;;;;;9.33;7.33;;;13.80;99.90;;;;;;5023350;28;20417;-42
2021/10/18 08:56:43;;;;;;;10.77;7.63;;;13.90;99.90;;;;;;5025718;28;20455;-41
2021/10/18 08:59:09;;;;;;;8.20;7.40;;;13.90;99.90;;;;;;5025804;28;20499;-41
2021/10/18 09:01:44;;;;;;;8.27;7.23;;;14.00;99.90;;;;;;5025297;28;20409;-42
2021/10/18 09:04:31;;;;;;;8.70;7.80;;;14.00;99.90;;;;;;5022200;28;20452;-41
2021/10/18 09:06:59;;;;;;;8.03;7.20;;;14.00;99.90;;;;;;5021834;28;20610;-42
2021/10/18 09:09:28;;;;;;;10.47;8.40;;;14.10;99.90;;;;;;5025612;28;20511;-42
2021/10/18 09:11:59;;;;;;;11.10;8.60;;;14.10;99.90;;;;;;5028543;28;20421;-41
2021/10/18 09:14:26;;;;;;;10.33;8.90;;;14.10;99.90;;;;;;5026885;28;20437;-41
2021/10/18 09:16:52;;;;;;;11.30;7.80;;;14.00;99.90;;;;;;5027764;28;20425;-41
2021/10/18 09:19:23;;;;;;;9.30;7.50;;;14.10;99.90;;;;;;5026798;28;20421;-41
2021/10/18 09:21:51;;;;;;;8.20;7.30;;;14.10;99.90;;;;;;5026827;28;20508;-41
2021/10/18 09:24:29;;;;;;;8.90;7.80;;;14.20;99.90;;;;;;5028737;28;20417;-41
2021/10/18 09:26:57;;;;;;;8.27;6.67;;;14.20;99.90;;;;;;5016520;28;20923;-41
2021/10/18 09:29:44;;;;;;;8.70;7.10;;;14.30;99.90;;;;;;5029275;28;20836;-42
2021/10/18 09:32:16;;;;;;;7.50;6.67;;;14.30;99.90;;;;;;5029178;28;20461;-41
2021/10/18 09:34:42;;;;;;;8.40;7.47;;;14.40;99.90;;;;;;5024486;28;20434;-41
2021/10/18 09:37:16;;;;;;;10.93;8.40;;;14.40;99.90;;;;;;5020786;28;20502;-41
2021/10/18 09:39:43;;;;;;;7.67;6.10;;;14.40;99.90;;;;;;5028007;28;20417;-42
2021/10/18 09:42:14;;;;;;;8.70;7.03;;;14.50;99.90;;;;;;5029065;28;20428;-42
2021/10/18 09:48:02;;;;;;;10.37;6.80;;;14.50;99.90;;;;;;5029489;28;20727;-41
2021/10/18 10:53:21;;;;;;;4.70;4.10;;;15.40;99.90;;;;;;5024854;28;20472;-41
2021/10/18 10:55:48;;;;;;;5.33;4.60;;;15.40;99.90;;;;;;5026770;28;20448;-42
2021/10/18 10:58:32;;;;;;;5.23;4.00;;;15.50;99.90;;;;;;5028576;28;20437;-42
2021/10/18 11:00:58;;;;;;;5.57;4.90;;;15.60;99.90;;;;;;5026307;28;20444;-42
2021/10/18 11:03:30;;;;;;;5.80;4.67;;;15.60;99.90;;;;;;5026833;28;21016;-43
2021/10/18 11:05:56;;;;;;;5.07;4.57;;;15.60;99.90;;;;;;5021306;28;20496;-41
2021/10/18 11:08:37;;;;;;;6.57;4.90;;;15.60;99.90;;;;;;5025294;28;20479;-42
2021/10/18 11:11:22;;;;;;;8.20;4.80;;;15.60;99.90;;;;;;5037219;28;20436;-42
2021/10/18 11:13:56;;;;;;;5.23;4.77;;;15.50;99.90;;;;;;5043783;28;21105;-43
2021/10/18 11:16:29;;;;;;;7.53;4.43;;;15.60;99.90;;;;;;5026400;28;20583;-42
2021/10/18 11:19:01;;;;;;;7.60;4.60;;;15.60;99.90;;;;;;5035525;28;20718;-42
2021/10/18 11:21:28;;;;;;;5.60;4.97;;;15.70;99.90;;;;;;5021428;28;20721;-42
2021/10/18 11:24:04;;;;;;;5.80;4.90;;;15.70;99.90;;;;;;5026845;28;20433;-42
2021/10/18 11:26:36;;;;;;;6.33;5.30;;;15.80;99.90;;;;;;5030298;28;20435;-42
2021/10/18 11:29:05;;;;;;;7.27;5.67;;;15.80;99.90;;;;;;5033489;28;20475;-42
2021/10/18 11:31:36;;;;;;;8.77;6.83;;;15.80;99.90;;;;;;5033086;28;20571;-41
2021/10/18 11:34:12;;;;;;;6.30;5.70;;;15.80;99.90;;;;;;5025123;28;21164;-44
2021/10/18 11:36:44;;;;;;;7.50;5.90;;;15.80;99.90;;;;;;5021401;28;20437;-41
2021/10/18 11:39:18;;;;;;;6.27;5.63;;;15.90;99.90;;;;;;5026496;28;20682;-42
2021/10/18 11:42:00;;;;;;;6.80;5.93;;;15.90;99.90;;;;;;5025494;28;20429;-41
2021/10/18 11:44:45;;;;;;;6.90;6.20;;;15.90;99.90;;;;;;5025543;28;20427;-41
2021/10/18 11:47:32;;;;;;;6.60;5.50;;;16.10;99.90;;;;;;5025930;28;20429;-42
2021/10/18 11:50:21;;;;;;;6.57;5.60;;;16.10;99.90;;;;;;5026540;28;20409;-41
2021/10/18 11:53:12;;;;;;;5.73;5.10;;;16.00;99.90;;;;;;5012947;28;20556;-42
2021/10/18 11:55:41;;;;;;;7.10;6.40;;;16.10;99.90;;;;;;5026394;28;20437;-41
2021/10/18 11:58:07;;;;;;;6.53;5.83;;;16.00;99.90;;;;;;5026914;28;20563;-41
2021/10/18 12:00:41;;;;;;;9.90;6.73;;;16.00;99.90;;;;;;5026583;28;20433;-42
2021/10/18 12:03:12;;;;;;;7.47;6.67;;;16.00;99.90;;;;;;5026028;28;20539;-44
2021/10/18 12:05:43;;;;;;;7.53;6.73;;;16.20;99.90;;;;;;5023215;28;20461;-42
2021/10/18 12:08:10;;;;;;;7.50;6.50;;;16.30;99.90;;;;;;5019959;28;20894;-42
2021/10/18 12:10:37;;;;;;;8.37;7.17;;;16.40;99.90;;;;;;5026049;28;20440;-42
2021/10/18 12:13:06;;;;;;;10.03;6.90;;;16.50;99.90;;;;;;5025654;28;20505;-42
2021/10/18 12:15:44;;;;;;;7.80;6.10;;;16.50;99.90;;;;;;5024933;28;20767;-43
2021/10/18 12:18:11;;;;;;;8.13;6.50;;;16.50;99.90;;;;;;5026010;28;20425;-42
2021/10/18 12:20:44;;;;;;;6.60;5.90;;;16.40;99.90;;;;;;5023632;28;20432;-42
2021/10/18 12:23:23;;;;;;;7.57;6.70;;;16.40;99.90;;;;;;5016405;28;20442;-42
2021/10/18 12:26:17;;;;;;;6.70;5.70;;;16.40;99.90;;;;;;5019209;28;20447;-43
2021/10/18 12:28:50;;;;;;;9.63;5.53;;;16.50;99.90;;;;;;5015850;28;20448;-41
2021/10/18 12:31:29;;;;;;;7.33;6.30;;;16.50;99.90;;;;;;5025516;28;20461;-41
2021/10/18 12:34:05;;;;;;;7.70;6.33;;;16.50;99.90;;;;;;5025272;28;20571;-45
2021/10/18 12:36:32;;;;;;;5.80;5.20;;;16.50;99.90;;;;;;5021065;28;20797;-42
2021/10/18 12:39:00;;;;;;;6.37;5.77;;;16.60;99.90;;;;;;5021034;28;20931;-42
2021/10/18 12:41:26;;;;;;;7.03;5.60;;;16.70;99.90;;;;;;5023912;28;20491;-44
2021/10/18 12:43:51;;;;;;;7.10;6.20;;;16.60;99.90;;;;;;5025045;28;20437;-42
2021/10/18 12:46:27;;;;;;;6.30;5.70;;;16.60;99.90;;;;;;5025244;28;20353;-44
2021/10/18 12:49:06;;;;;;;9.07;5.87;;;16.60;99.90;;;;;;5025933;28;20217;-41
2021/10/18 12:51:42;;;;;;;5.60;4.73;;;16.70;99.90;;;;;;5018339;28;20445;-42
2021/10/18 12:54:19;;;;;;;5.30;4.80;;;16.70;99.90;;;;;;5022243;28;20769;-41
2021/10/18 12:56:59;;;;;;;8.23;5.90;;;16.80;99.90;;;;;;5019898;28;20491;-42
2021/10/18 12:59:25;;;;;;;6.90;5.80;;;16.80;99.90;;;;;;5025912;28;20946;-41
2021/10/18 13:02:17;;;;;;;7.30;5.67;;;16.90;99.90;;;;;;5025380;28;20425;-42
2021/10/18 13:05:01;;;;;;;5.93;4.70;;;16.90;99.90;;;;;;5025249;28;20252;-43
2021/10/18 13:07:27;;;;;;;5.87;4.97;;;16.90;99.90;;;;;;5016588;28;20437;-41
2021/10/18 13:09:53;;;;;;;6.40;5.17;;;16.80;99.90;;;;;;5025784;28;20426;-42
2021/10/18 13:12:18;;;;;;;7.10;5.53;;;16.80;99.90;;;;;;5025294;28;20468;-42
2021/10/18 13:14:45;;;;;;;7.43;5.27;;;16.80;99.90;;;;;;5023844;28;20811;-42
2021/10/18 13:17:11;;;;;;;5.67;5.10;;;16.70;99.90;;;;;;5025460;28;20193;-41
2021/10/18 13:19:36;;;;;;;9.10;6.00;;;16.60;99.90;;;;;;5025642;28;20528;-44
2021/10/18 13:22:02;;;;;;;5.50;4.80;;;16.50;99.90;;;;;;5027932;28;20578;-41
2021/10/18 13:24:28;;;;;;;8.00;5.63;;;16.40;99.90;;;;;;5023274;28;20629;-43
2021/10/18 13:26:53;;;;;;;6.13;5.27;;;16.20;99.90;;;;;;5024886;28;20182;-42
2021/10/18 13:29:19;;;;;;;6.17;5.43;;;16.10;99.90;;;;;;5025157;28;20281;-42
2021/10/18 13:31:45;;;;;;;6.20;5.10;;;16.00;99.90;;;;;;5025314;28;20252;-41
2021/10/18 13:34:10;;;;;;;7.50;5.50;;;16.00;99.90;;;;;;5024561;28;20213;-45
2021/10/18 13:36:36;;;;;;;5.63;5.00;;;16.00;99.90;;;;;;5020530;28;20634;-42
2021/10/18 13:39:02;;;;;;;7.70;5.23;;;15.90;99.90;;;;;;5019811;28;20191;-42
2021/10/18 13:41:28;;;;;;;7.37;6.03;;;15.90;99.90;;;;;;5025186;28;20195;-42
2021/10/18 13:43:54;;;;;;;6.30;5.63;;;15.80;99.90;;;;;;5024053;28;20432;-45
2021/10/18 13:46:19;;;;;;;7.17;6.00;;;15.80;99.90;;;;;;5025626;28;20487;-42
2021/10/18 13:48:45;;;;;;;6.90;5.33;;;15.70;99.90;;;;;;5025141;28;20688;-43
2021/10/18 13:51:11;;;;;;;5.97;5.40;;;15.70;99.90;;;;;;5025401;28;20186;-43
2021/10/18 13:53:37;;;;;;;7.67;6.33;;;15.70;99.90;;;;;;5009692;28;20210;-43
2021/10/18 13:56:03;;;;;;;7.33;5.00;;;15.70;99.90;;;;;;5024793;28;20789;-42
2021/10/18 13:58:28;;;;;;;6.67;5.97;;;15.70;99.90;;;;;;5026648;28;20187;-42
2021/10/18 14:00:54;;;;;;;6.80;6.07;;;15.70;99.90;;;;;;5028809;28;20447;-42
2021/10/18 14:03:20;;;;;;;8.30;6.00;;;15.60;99.90;;;;;;5027913;28;20260;-43